createdAt,value
2023-08-29T00:00:41.349Z,94.68
2023-08-29T00:01:41.365Z,94.27
2023-08-29T00:02:41.361Z,94.58
2023-08-29T00:03:41.347Z,94.78
2023-08-29T00:04:41.296Z,94.58
2023-08-29T00:05:41.287Z,95.19
2023-08-29T00:06:41.293Z,94.89
2023-08-29T00:07:41.264Z,94.68
2023-08-29T00:08:41.247Z,95.09
2023-08-29T00:09:41.229Z,94.98
2023-08-29T00:10:41.214Z,95.39
2023-08-29T00:11:41.220Z,95.09
2023-08-29T00:12:41.187Z,95.29
2023-08-29T00:13:41.179Z,95.29
2023-08-29T00:14:41.162Z,95.19
2023-08-29T00:15:41.172Z,95.70
2023-08-29T00:16:41.147Z,95.43
2023-08-29T00:17:41.266Z,95.74
2023-08-29T00:18:43.039Z,95.64
2023-08-29T00:19:41.151Z,95.64
2023-08-29T00:20:41.144Z,95.64
2023-08-29T00:21:41.073Z,96.04
2023-08-29T00:22:41.057Z,95.94
2023-08-29T00:23:41.091Z,96.04
2023-08-29T00:24:41.072Z,95.84
2023-08-29T00:25:41.037Z,96.15
2023-08-29T00:26:48.510Z,96.04
2023-08-29T00:27:48.510Z,95.84
2023-08-29T00:28:41.063Z,96.35
2023-08-29T00:29:41.063Z,96.55
2023-08-29T00:30:44.696Z,96.15
2023-08-29T00:31:41.070Z,96.66
2023-08-29T00:32:40.991Z,96.45
2023-08-29T00:33:40.923Z,96.86
2023-08-29T00:34:40.927Z,96.86
2023-08-29T00:35:40.927Z,97.06
2023-08-29T00:36:40.886Z,96.96
2023-08-29T00:37:40.876Z,97.00
2023-08-29T00:38:40.861Z,97.20
2023-08-29T00:39:40.848Z,97.20
2023-08-29T00:40:40.828Z,97.61
2023-08-29T00:41:40.813Z,97.71
2023-08-29T00:42:40.798Z,97.61
2023-08-29T00:43:40.807Z,97.81
2023-08-29T00:44:40.785Z,97.61
2023-08-29T00:45:40.788Z,97.41
2023-08-29T00:46:40.748Z,97.41
2023-08-29T00:47:40.772Z,98.32
2023-08-29T00:48:40.739Z,98.22
2023-08-29T00:49:40.714Z,98.22
2023-08-29T00:50:40.695Z,98.02
2023-08-29T00:51:40.727Z,98.02
2023-08-29T00:52:40.670Z,98.12
2023-08-29T00:53:40.673Z,98.02
2023-08-29T00:54:40.643Z,98.12
2023-08-29T00:55:40.627Z,98.12
2023-08-29T00:56:40.613Z,98.12
2023-08-29T00:57:40.619Z,97.81
2023-08-29T00:58:40.602Z,97.81
2023-08-29T00:59:40.582Z,97.92
2023-08-29T01:00:40.565Z,98.12
2023-08-29T01:01:40.638Z,98.12
2023-08-29T01:02:40.593Z,98.12
2023-08-29T01:03:40.588Z,98.12
2023-08-29T01:04:40.510Z,97.71
2023-08-29T01:05:40.549Z,97.51
2023-08-29T01:06:40.485Z,97.71
2023-08-29T01:07:40.486Z,97.81
2023-08-29T01:08:40.467Z,97.92
2023-08-29T01:09:40.449Z,98.02
2023-08-29T01:10:40.435Z,98.02
2023-08-29T01:11:40.426Z,98.22
2023-08-29T01:12:40.413Z,98.12
2023-08-29T01:13:40.398Z,98.02
2023-08-29T01:14:40.378Z,98.22
2023-08-29T01:15:40.394Z,98.43
2023-08-29T01:16:40.355Z,98.52
2023-08-29T01:17:40.375Z,98.73
2023-08-29T01:18:40.327Z,98.73
2023-08-29T01:19:40.318Z,98.73
2023-08-29T01:20:40.299Z,98.43
2023-08-29T01:21:40.302Z,98.63
2023-08-29T01:22:40.270Z,98.83
2023-08-29T01:23:40.265Z,98.93
2023-08-29T01:24:40.252Z,99.04
2023-08-29T01:25:40.247Z,99.13
2023-08-29T01:26:40.228Z,99.24
2023-08-29T01:27:40.220Z,99.38
2023-08-29T01:28:40.195Z,99.38
2023-08-29T01:29:40.185Z,99.38
2023-08-29T01:30:40.186Z,99.38
2023-08-29T01:31:40.248Z,99.49
2023-08-29T01:32:40.260Z,99.28
2023-08-29T01:33:40.136Z,99.18
2023-08-29T01:34:40.114Z,99.18
2023-08-29T01:35:40.119Z,99.28
2023-08-29T01:36:40.103Z,99.28
2023-08-29T01:37:40.091Z,99.49
2023-08-29T01:38:40.068Z,99.49
2023-08-29T01:39:40.065Z,99.38
2023-08-29T01:40:40.049Z,99.28
2023-08-29T01:41:40.081Z,99.38
2023-08-29T01:42:40.038Z,99.49
2023-08-29T01:43:40.039Z,99.99
2023-08-29T01:44:40.005Z,99.99
2023-08-29T01:45:40.176Z,99.89
2023-08-29T01:46:39.999Z,99.49
2023-08-29T01:47:40.111Z,99.49
2023-08-29T01:48:40.029Z,99.38
2023-08-29T01:49:39.939Z,99.28
2023-08-29T01:50:39.908Z,99.38
2023-08-29T01:51:39.897Z,99.79
2023-08-29T01:52:39.887Z,99.69
2023-08-29T01:53:39.897Z,99.49
2023-08-29T01:54:39.863Z,99.38
2023-08-29T01:55:39.857Z,99.28
2023-08-29T01:56:39.826Z,99.38
2023-08-29T01:57:39.823Z,99.38
2023-08-29T01:58:39.812Z,99.58
2023-08-29T01:59:39.793Z,99.89
2023-08-29T02:00:39.777Z,99.69
2023-08-29T02:01:39.811Z,99.79
2023-08-29T02:02:39.849Z,99.58
2023-08-29T02:03:39.760Z,99.69
2023-08-29T02:04:39.795Z,99.99
2023-08-29T02:05:39.723Z,99.69
2023-08-29T02:06:39.716Z,99.69
2023-08-29T02:07:39.714Z,99.58
2023-08-29T02:08:39.685Z,99.79
2023-08-29T02:09:39.673Z,99.58
2023-08-29T02:10:39.678Z,99.58
2023-08-29T02:11:39.648Z,99.58
2023-08-29T02:12:39.657Z,99.58
2023-08-29T02:13:39.641Z,99.58
2023-08-29T02:14:39.628Z,99.28
2023-08-29T02:15:39.645Z,99.28
2023-08-29T02:16:39.749Z,99.38
2023-08-29T02:17:39.754Z,99.28
2023-08-29T02:18:39.604Z,99.18
2023-08-29T02:19:39.595Z,99.18
2023-08-29T02:20:39.515Z,99.08
2023-08-29T02:21:39.504Z,99.28
2023-08-29T02:22:39.501Z,99.08
2023-08-29T02:23:39.492Z,99.08
2023-08-29T02:24:39.470Z,99.58
2023-08-29T02:25:39.455Z,99.18
2023-08-29T02:26:39.470Z,98.97
2023-08-29T02:27:39.447Z,99.08
2023-08-29T02:28:39.414Z,99.08
2023-08-29T02:29:39.407Z,99.38
2023-08-29T02:30:39.385Z,99.38
2023-08-29T02:31:39.381Z,99.49
2023-08-29T02:32:39.392Z,99.28
2023-08-29T02:33:39.462Z,99.99
2023-08-29T02:34:39.345Z,99.99
2023-08-29T02:35:39.323Z,99.69
2023-08-29T02:36:39.326Z,99.89
2023-08-29T02:37:39.296Z,99.89
2023-08-29T02:38:39.287Z,99.89
2023-08-29T02:39:39.288Z,99.99
2023-08-29T02:40:39.270Z,99.99
2023-08-29T02:41:39.257Z,99.89
2023-08-29T02:42:39.261Z,99.89
2023-08-29T02:43:39.234Z,99.89
2023-08-29T02:44:39.202Z,99.94
2023-08-29T02:45:39.203Z,99.99
2023-08-29T02:46:39.213Z,99.94
2023-08-29T02:47:39.224Z,99.99
2023-08-29T02:48:39.176Z,99.99
2023-08-29T02:49:39.162Z,99.99
2023-08-29T02:50:39.146Z,99.99
2023-08-29T02:51:39.144Z,99.99
2023-08-29T02:52:39.108Z,99.99
2023-08-29T02:53:39.101Z,99.99
2023-08-29T02:54:39.084Z,99.99
2023-08-29T02:55:39.087Z,99.99
2023-08-29T02:56:39.087Z,99.99
2023-08-29T02:57:39.085Z,99.99
2023-08-29T02:58:39.025Z,99.99
2023-08-29T02:59:39.032Z,99.99
2023-08-29T03:00:39.045Z,99.99
2023-08-29T03:01:38.988Z,99.99
2023-08-29T03:02:39.023Z,99.99
2023-08-29T03:03:39.136Z,99.99
2023-08-29T03:04:38.953Z,99.99
2023-08-29T03:05:38.952Z,99.99
2023-08-29T03:06:38.932Z,99.99
2023-08-29T03:07:38.915Z,99.99
2023-08-29T03:08:38.925Z,99.99
2023-08-29T03:09:38.888Z,99.99
2023-08-29T03:10:38.867Z,99.99
2023-08-29T03:11:38.865Z,99.99
2023-08-29T03:12:38.859Z,99.99
2023-08-29T03:13:38.846Z,99.99
2023-08-29T03:14:38.825Z,99.99
2023-08-29T03:15:38.807Z,99.99
2023-08-29T03:16:38.873Z,99.99
2023-08-29T03:17:38.868Z,99.99
2023-08-29T03:18:38.772Z,99.99
2023-08-29T03:19:38.762Z,99.99
2023-08-29T03:20:38.752Z,99.99
2023-08-29T03:21:38.734Z,99.99
2023-08-29T03:22:38.727Z,99.99
2023-08-29T03:23:38.731Z,99.99
2023-08-29T03:24:38.724Z,99.99
2023-08-29T03:25:38.684Z,99.99
2023-08-29T03:26:38.680Z,99.99
2023-08-29T03:27:38.679Z,99.99
2023-08-29T03:28:38.665Z,99.99
2023-08-29T03:29:38.644Z,99.99
2023-08-29T03:30:38.627Z,99.99
2023-08-29T03:31:38.625Z,99.99
2023-08-29T03:32:38.764Z,99.99
2023-08-29T03:33:38.629Z,99.99
2023-08-29T03:34:38.560Z,99.99
2023-08-29T03:35:38.550Z,99.99
2023-08-29T03:36:38.538Z,99.99
2023-08-29T03:37:38.520Z,99.99
2023-08-29T03:38:38.500Z,99.99
2023-08-29T03:39:38.500Z,99.99
2023-08-29T03:40:38.482Z,99.99
2023-08-29T03:41:38.576Z,99.99
2023-08-29T03:42:38.448Z,99.99
2023-08-29T03:43:38.442Z,99.99
2023-08-29T03:44:38.444Z,99.99
2023-08-29T03:45:38.418Z,99.99
2023-08-29T03:46:38.410Z,99.99
2023-08-29T03:47:38.441Z,99.99
2023-08-29T03:48:39.022Z,99.99
2023-08-29T03:49:38.358Z,99.99
2023-08-29T03:50:38.364Z,99.99
2023-08-29T03:51:39.036Z,99.99
2023-08-29T03:52:38.317Z,99.99
2023-08-29T03:53:38.363Z,99.99
2023-08-29T03:54:38.314Z,99.99
2023-08-29T03:55:38.291Z,99.99
2023-08-29T03:56:40.666Z,99.99
2023-08-29T03:57:38.269Z,99.99
2023-08-29T03:58:38.273Z,99.99
2023-08-29T03:59:38.240Z,99.99
2023-08-29T04:00:38.285Z,99.99
2023-08-29T04:01:38.203Z,99.99
2023-08-29T04:02:38.189Z,99.99
2023-08-29T04:03:38.436Z,99.99
2023-08-29T04:04:38.316Z,99.99
2023-08-29T04:05:38.458Z,99.99
2023-08-29T04:06:38.141Z,99.99
2023-08-29T04:07:38.126Z,99.99
2023-08-29T04:08:38.124Z,99.99
2023-08-29T04:09:38.109Z,99.99
2023-08-29T04:10:38.097Z,99.99
2023-08-29T04:11:38.077Z,99.99
2023-08-29T04:12:38.070Z,99.99
2023-08-29T04:13:38.063Z,99.99
2023-08-29T04:14:38.057Z,99.99
2023-08-29T04:15:38.040Z,99.99
2023-08-29T04:16:38.060Z,99.99
2023-08-29T04:17:38.004Z,99.99
2023-08-29T04:18:38.001Z,99.99
2023-08-29T04:19:37.971Z,99.99
2023-08-29T04:20:37.990Z,99.99
2023-08-29T04:21:37.952Z,99.99
2023-08-29T04:22:37.957Z,99.99
2023-08-29T04:23:37.934Z,99.99
2023-08-29T04:24:37.912Z,99.99
2023-08-29T04:25:37.895Z,99.99
2023-08-29T04:26:37.898Z,99.99
2023-08-29T04:27:37.878Z,99.99
2023-08-29T04:28:37.860Z,99.99
2023-08-29T04:29:37.840Z,99.99
2023-08-29T04:30:37.829Z,99.99
2023-08-29T04:31:37.849Z,99.99
2023-08-29T04:32:37.836Z,99.99
2023-08-29T04:33:37.818Z,99.99
2023-08-29T04:34:37.785Z,99.99
2023-08-29T04:35:37.764Z,99.99
2023-08-29T04:36:37.775Z,99.99
2023-08-29T04:37:37.744Z,99.99
2023-08-29T04:38:37.728Z,99.99
2023-08-29T04:39:39.891Z,99.99
2023-08-29T04:40:37.701Z,99.99
2023-08-29T04:41:37.693Z,99.99
2023-08-29T04:42:37.935Z,99.99
2023-08-29T04:43:37.682Z,99.99
2023-08-29T04:44:37.653Z,99.99
2023-08-29T04:45:37.648Z,99.99
2023-08-29T04:46:37.645Z,99.99
2023-08-29T04:47:37.644Z,99.99
2023-08-29T04:48:37.619Z,99.99
2023-08-29T04:49:37.579Z,99.99
2023-08-29T04:50:37.615Z,99.99
2023-08-29T04:51:37.568Z,99.99
2023-08-29T04:52:37.554Z,99.99
2023-08-29T04:53:37.526Z,99.99
2023-08-29T04:54:37.522Z,99.99
2023-08-29T04:55:37.517Z,99.99
2023-08-29T04:56:37.499Z,99.99
2023-08-29T04:57:44.984Z,99.99
2023-08-29T04:58:44.977Z,99.99
2023-08-29T04:59:37.462Z,99.99
2023-08-29T05:00:37.456Z,99.99
2023-08-29T05:01:37.473Z,99.99
2023-08-29T05:02:37.420Z,99.99
2023-08-29T05:03:37.432Z,99.99
2023-08-29T05:04:37.403Z,99.99
2023-08-29T05:05:37.390Z,99.99
2023-08-29T05:06:37.371Z,99.99
2023-08-29T05:07:37.395Z,99.99
2023-08-29T05:08:37.411Z,99.99
2023-08-29T05:09:37.334Z,99.99
2023-08-29T05:10:37.323Z,99.99
2023-08-29T05:11:37.294Z,99.99
2023-08-29T05:12:37.285Z,99.99
2023-08-29T05:13:37.368Z,99.99
2023-08-29T05:14:37.272Z,99.99
2023-08-29T05:15:37.245Z,99.99
2023-08-29T05:16:37.250Z,99.99
2023-08-29T05:17:37.243Z,99.99
2023-08-29T05:18:37.213Z,99.99
2023-08-29T05:19:37.216Z,99.99
2023-08-29T05:20:37.185Z,99.99
2023-08-29T05:21:37.169Z,99.99
2023-08-29T05:22:37.162Z,99.99
2023-08-29T05:23:37.152Z,99.99
2023-08-29T05:24:37.143Z,99.99
2023-08-29T05:25:37.121Z,99.99
2023-08-29T05:26:37.105Z,99.99
2023-08-29T05:27:37.108Z,99.99
2023-08-29T05:28:37.253Z,99.99
2023-08-29T05:29:37.147Z,99.99
2023-08-29T05:30:37.067Z,99.99
2023-08-29T05:31:37.130Z,99.99
2023-08-29T05:32:37.050Z,99.99
2023-08-29T05:33:37.032Z,99.99
2023-08-29T05:34:37.028Z,99.99
2023-08-29T05:35:36.992Z,99.99
2023-08-29T05:36:36.977Z,99.99
2023-08-29T05:37:36.987Z,99.99
2023-08-29T05:38:36.955Z,99.99
2023-08-29T05:39:37.030Z,99.99
2023-08-29T05:40:36.927Z,99.99
2023-08-29T05:41:36.910Z,99.99
2023-08-29T05:42:36.905Z,99.99
2023-08-29T05:43:36.875Z,99.99
2023-08-29T05:44:36.874Z,99.99
2023-08-29T05:45:36.860Z,99.99
2023-08-29T05:46:36.885Z,99.99
2023-08-29T05:47:36.961Z,99.99
2023-08-29T05:48:36.816Z,99.99
2023-08-29T05:49:36.798Z,99.99
2023-08-29T05:50:36.793Z,99.99
2023-08-29T05:51:36.793Z,99.99
2023-08-29T05:52:37.004Z,99.99
2023-08-29T05:53:36.786Z,99.99
2023-08-29T05:54:36.884Z,99.99
2023-08-29T05:55:36.750Z,99.99
2023-08-29T05:56:36.724Z,99.99
2023-08-29T05:57:36.705Z,99.99
2023-08-29T05:58:36.686Z,99.99
2023-08-29T05:59:36.680Z,99.99
2023-08-29T06:00:36.691Z,99.99
2023-08-29T06:01:36.647Z,99.99
2023-08-29T06:02:36.670Z,99.99
2023-08-29T06:03:36.693Z,99.99
2023-08-29T06:04:44.123Z,99.99
2023-08-29T06:05:36.597Z,99.99
2023-08-29T06:06:36.592Z,99.99
2023-08-29T06:07:36.562Z,99.99
2023-08-29T06:08:36.553Z,99.99
2023-08-29T06:09:36.534Z,99.99
2023-08-29T06:10:36.541Z,99.99
2023-08-29T06:11:36.519Z,99.99
2023-08-29T06:12:36.503Z,99.99
2023-08-29T06:13:36.598Z,99.99
2023-08-29T06:14:36.486Z,99.99
2023-08-29T06:15:36.473Z,99.99
2023-08-29T06:16:36.512Z,99.99
2023-08-29T06:17:36.488Z,99.99
2023-08-29T06:18:36.424Z,99.99
2023-08-29T06:19:36.423Z,99.99
2023-08-29T06:20:36.398Z,99.99
2023-08-29T06:21:36.386Z,99.99
2023-08-29T06:22:36.369Z,99.99
2023-08-29T06:23:36.414Z,99.99
2023-08-29T06:24:36.356Z,99.99
2023-08-29T06:25:36.326Z,99.99
2023-08-29T06:26:36.398Z,99.99
2023-08-29T06:27:36.301Z,99.99
2023-08-29T06:28:36.312Z,99.99
2023-08-29T06:29:36.295Z,99.99
2023-08-29T06:30:44.999Z,99.99
2023-08-29T06:31:43.287Z,99.99
2023-08-29T06:32:43.795Z,99.99
2023-08-29T06:33:43.749Z,99.99
2023-08-29T06:34:43.215Z,99.99
2023-08-29T06:35:44.882Z,99.99
2023-08-29T06:36:43.188Z,99.99
2023-08-29T06:37:43.663Z,99.95
2023-08-29T06:38:43.169Z,99.99
2023-08-29T06:39:36.146Z,99.99
2023-08-29T06:40:36.155Z,99.95
2023-08-29T06:41:36.117Z,99.99
2023-08-29T06:42:36.126Z,99.85
2023-08-29T06:43:36.086Z,99.74
2023-08-29T06:44:36.099Z,99.99
2023-08-29T06:45:36.058Z,99.99
2023-08-29T06:46:36.076Z,99.99
2023-08-29T06:47:36.099Z,99.99
2023-08-29T06:48:36.029Z,99.99
2023-08-29T06:49:36.010Z,99.99
2023-08-29T06:50:35.997Z,99.99
2023-08-29T06:51:35.994Z,99.95
2023-08-29T06:52:35.990Z,99.99
2023-08-29T06:53:35.953Z,99.99
2023-08-29T06:54:36.016Z,99.99
2023-08-29T06:55:35.982Z,99.99
2023-08-29T06:56:35.927Z,99.99
2023-08-29T06:57:35.902Z,99.95
2023-08-29T06:58:35.901Z,99.74
2023-08-29T06:59:35.878Z,99.95
2023-08-29T07:00:35.883Z,99.99
2023-08-29T07:01:35.862Z,99.99
2023-08-29T07:02:35.917Z,99.85
2023-08-29T07:03:35.966Z,99.95
2023-08-29T07:04:35.815Z,99.99
2023-08-29T07:05:35.811Z,99.64
2023-08-29T07:06:35.824Z,99.99
2023-08-29T07:07:35.767Z,99.33
2023-08-29T07:08:35.764Z,99.44
2023-08-29T07:09:35.768Z,99.54
2023-08-29T07:10:35.752Z,99.85
2023-08-29T07:11:35.717Z,99.44
2023-08-29T07:12:35.709Z,99.29
2023-08-29T07:13:35.687Z,99.29
2023-08-29T07:14:35.693Z,99.04
2023-08-29T07:15:35.681Z,99.44
2023-08-29T07:16:35.735Z,99.54
2023-08-29T07:17:35.657Z,99.54
2023-08-29T07:18:35.633Z,99.69
2023-08-29T07:19:35.627Z,99.29
2023-08-29T07:20:35.604Z,99.29
2023-08-29T07:21:35.589Z,99.29
2023-08-29T07:22:35.594Z,98.99
2023-08-29T07:23:35.570Z,98.88
2023-08-29T07:24:35.565Z,99.19
2023-08-29T07:25:35.536Z,99.19
2023-08-29T07:26:35.528Z,99.49
2023-08-29T07:27:35.509Z,99.19
2023-08-29T07:28:35.517Z,99.24
2023-08-29T07:29:35.486Z,98.38
2023-08-29T07:30:35.547Z,98.88
2023-08-29T07:31:37.609Z,99.29
2023-08-29T07:32:35.452Z,99.08
2023-08-29T07:33:35.446Z,98.88
2023-08-29T07:34:35.423Z,98.99
2023-08-29T07:35:35.397Z,98.88
2023-08-29T07:36:35.389Z,98.79
2023-08-29T07:37:38.068Z,98.79
2023-08-29T07:38:35.374Z,98.68
2023-08-29T07:39:35.367Z,99.14
2023-08-29T07:40:35.353Z,98.84
2023-08-29T07:41:35.333Z,98.74
2023-08-29T07:42:35.329Z,98.63
2023-08-29T07:43:35.308Z,98.33
2023-08-29T07:44:35.309Z,98.74
2023-08-29T07:45:35.284Z,99.04
2023-08-29T07:46:35.293Z,98.94
2023-08-29T07:47:35.310Z,98.54
2023-08-29T07:48:35.230Z,98.33
2023-08-29T07:49:35.220Z,98.43
2023-08-29T07:50:35.206Z,98.84
2023-08-29T07:51:35.197Z,98.84
2023-08-29T07:52:35.190Z,98.94
2023-08-29T07:53:35.167Z,99.10
2023-08-29T07:54:35.157Z,98.90
2023-08-29T07:55:35.164Z,97.98
2023-08-29T07:56:35.135Z,97.78
2023-08-29T07:57:35.133Z,97.27
2023-08-29T07:58:35.108Z,97.38
2023-08-29T07:59:35.092Z,97.78
2023-08-29T08:00:35.068Z,97.38
2023-08-29T08:01:35.157Z,96.77
2023-08-29T08:02:35.102Z,96.97
2023-08-29T08:03:35.123Z,97.27
2023-08-29T08:04:35.035Z,97.07
2023-08-29T08:05:35.019Z,96.87
2023-08-29T08:06:34.998Z,96.66
2023-08-29T08:07:34.985Z,96.97
2023-08-29T08:08:35.017Z,97.33
2023-08-29T08:09:34.956Z,96.62
2023-08-29T08:10:35.324Z,96.01
2023-08-29T08:11:34.925Z,96.51
2023-08-29T08:12:34.922Z,95.91
2023-08-29T08:13:34.907Z,96.01
2023-08-29T08:14:34.890Z,96.07
2023-08-29T08:15:34.890Z,95.97
2023-08-29T08:16:34.905Z,95.46
2023-08-29T08:17:34.910Z,94.65
2023-08-29T08:18:34.845Z,95.06
2023-08-29T08:19:34.868Z,95.97
2023-08-29T08:20:34.828Z,95.56
2023-08-29T08:21:34.798Z,95.76
2023-08-29T08:22:34.779Z,96.17
2023-08-29T08:23:34.778Z,95.26
2023-08-29T08:24:34.769Z,94.71
2023-08-29T08:25:34.751Z,94.81
2023-08-29T08:26:34.731Z,94.76
2023-08-29T08:27:34.717Z,94.06
2023-08-29T08:28:34.701Z,93.44
2023-08-29T08:29:34.709Z,94.06
2023-08-29T08:30:34.731Z,94.26
2023-08-29T08:31:34.712Z,94.26
2023-08-29T08:32:34.653Z,94.46
2023-08-29T08:33:34.726Z,93.75
2023-08-29T08:34:34.630Z,94.31
2023-08-29T08:35:38.481Z,93.91
2023-08-29T08:36:35.615Z,93.15
2023-08-29T08:37:34.597Z,93.60
2023-08-29T08:38:34.590Z,93.71
2023-08-29T08:39:34.573Z,93.60
2023-08-29T08:40:35.065Z,92.60
2023-08-29T08:41:34.542Z,93.56
2023-08-29T08:42:34.526Z,92.55
2023-08-29T08:43:34.533Z,92.96
2023-08-29T08:44:34.497Z,92.50
2023-08-29T08:45:34.490Z,91.39
2023-08-29T08:46:34.470Z,91.64
2023-08-29T08:47:34.524Z,92.19
2023-08-29T08:48:34.465Z,92.69
2023-08-29T08:49:34.434Z,93.26
2023-08-29T08:50:34.414Z,92.35
2023-08-29T08:51:34.418Z,93.21
2023-08-29T08:52:34.427Z,91.64
2023-08-29T08:53:34.395Z,92.61
2023-08-29T08:54:34.372Z,92.45
2023-08-29T08:55:34.359Z,91.80
2023-08-29T08:56:34.339Z,92.30
2023-08-29T08:57:34.343Z,91.70
2023-08-29T08:58:34.307Z,91.50
2023-08-29T08:59:34.303Z,92.36
2023-08-29T09:00:34.297Z,90.61
2023-08-29T09:01:34.356Z,90.24
2023-08-29T09:02:34.268Z,90.45
2023-08-29T09:03:34.252Z,90.24
2023-08-29T09:04:34.244Z,90.59
2023-08-29T09:05:34.227Z,90.89
2023-08-29T09:06:34.215Z,92.10
2023-08-29T09:07:34.200Z,92.10
2023-08-29T09:08:34.190Z,92.00
2023-08-29T09:09:34.171Z,91.09
2023-08-29T09:10:34.165Z,91.15
2023-08-29T09:11:34.160Z,91.86
2023-08-29T09:12:34.131Z,92.42
2023-08-29T09:13:34.117Z,90.77
2023-08-29T09:14:34.103Z,89.21
2023-08-29T09:15:34.097Z,88.70
2023-08-29T09:16:34.089Z,89.91
2023-08-29T09:17:34.104Z,88.20
2023-08-29T09:18:34.058Z,87.49
2023-08-29T09:19:34.041Z,89.21
2023-08-29T09:20:34.034Z,88.81
2023-08-29T09:21:36.535Z,90.32
2023-08-29T09:22:33.998Z,88.66
2023-08-29T09:23:33.988Z,88.06
2023-08-29T09:24:33.975Z,87.96
2023-08-29T09:25:33.972Z,87.15
2023-08-29T09:26:33.950Z,87.90
2023-08-29T09:27:33.935Z,89.47
2023-08-29T09:28:33.926Z,91.14
2023-08-29T09:29:33.926Z,89.69
2023-08-29T09:30:33.904Z,86.43
2023-08-29T09:31:33.909Z,85.25
2023-08-29T09:32:33.928Z,87.07
2023-08-29T09:33:33.879Z,86.36
2023-08-29T09:34:33.852Z,85.96
2023-08-29T09:35:33.834Z,85.96
2023-08-29T09:36:33.818Z,86.57
2023-08-29T09:37:33.817Z,86.30
2023-08-29T09:38:33.813Z,87.31
2023-08-29T09:39:33.795Z,86.51
2023-08-29T09:40:40.014Z,87.62
2023-08-29T09:41:34.751Z,87.82
2023-08-29T09:42:33.737Z,88.02
2023-08-29T09:43:33.748Z,87.17
2023-08-29T09:44:33.727Z,86.30
2023-08-29T09:45:33.745Z,88.22
2023-08-29T09:46:33.684Z,87.35
2023-08-29T09:47:33.779Z,89.12
2023-08-29T09:48:33.687Z,88.42
2023-08-29T09:49:33.647Z,87.27
2023-08-29T09:50:33.648Z,87.47
2023-08-29T09:51:33.631Z,86.32
2023-08-29T09:52:33.610Z,86.28
2023-08-29T09:53:33.605Z,86.28
2023-08-29T09:54:33.586Z,86.28
2023-08-29T09:55:33.572Z,84.88
2023-08-29T09:56:33.556Z,85.72
2023-08-29T09:57:33.548Z,87.53
2023-08-29T09:58:33.541Z,85.82
2023-08-29T09:59:33.523Z,87.33
2023-08-29T10:00:33.506Z,86.28
2023-08-29T10:01:33.547Z,85.22
2023-08-29T10:02:33.522Z,86.22
2023-08-29T10:03:33.498Z,86.43
2023-08-29T10:04:33.449Z,85.17
2023-08-29T10:05:33.449Z,84.91
2023-08-29T10:06:33.419Z,86.18
2023-08-29T10:07:33.424Z,86.85
2023-08-29T10:08:33.392Z,84.09
2023-08-29T10:09:33.395Z,85.16
2023-08-29T10:10:33.371Z,83.91
2023-08-29T10:11:44.279Z,82.10
2023-08-29T10:12:34.364Z,82.40
2023-08-29T10:13:33.425Z,81.50
2023-08-29T10:14:33.325Z,81.24
2023-08-29T10:15:33.682Z,83.12
2023-08-29T10:16:33.325Z,83.51
2023-08-29T10:17:33.388Z,86.22
2023-08-29T10:18:33.323Z,85.02
2023-08-29T10:19:33.252Z,86.48
2023-08-29T10:20:33.238Z,86.44
2023-08-29T10:21:33.257Z,82.72
2023-08-29T10:22:33.213Z,82.52
2023-08-29T10:23:33.208Z,83.93
2023-08-29T10:24:33.183Z,81.68
2023-08-29T10:25:33.192Z,81.18
2023-08-29T10:26:33.164Z,82.12
2023-08-29T10:27:33.232Z,82.92
2023-08-29T10:28:33.149Z,82.89
2023-08-29T10:29:33.117Z,84.29
2023-08-29T10:30:33.123Z,82.28
2023-08-29T10:31:33.133Z,80.98
2023-08-29T10:32:33.117Z,81.98
2023-08-29T10:33:33.076Z,82.48
2023-08-29T10:34:33.064Z,83.39
2023-08-29T10:35:33.068Z,83.83
2023-08-29T10:36:33.026Z,85.10
2023-08-29T10:37:33.016Z,85.19
2023-08-29T10:38:33.007Z,82.68
2023-08-29T10:39:33.007Z,81.27
2023-08-29T10:40:32.976Z,82.75
2023-08-29T10:41:32.971Z,81.64
2023-08-29T10:42:32.947Z,82.64
2023-08-29T10:43:32.943Z,80.74
2023-08-29T10:44:32.936Z,81.44
2023-08-29T10:45:32.915Z,82.90
2023-08-29T10:46:32.930Z,81.30
2023-08-29T10:47:32.914Z,82.76
2023-08-29T10:48:32.881Z,82.43
2023-08-29T10:49:32.889Z,81.32
2023-08-29T10:50:32.843Z,80.48
2023-08-29T10:51:32.836Z,79.28
2023-08-29T10:52:32.852Z,79.04
2023-08-29T10:53:32.850Z,79.08
2023-08-29T10:54:32.796Z,78.08
2023-08-29T10:55:32.830Z,79.52
2023-08-29T10:56:32.781Z,79.78
2023-08-29T10:57:32.769Z,79.68
2023-08-29T10:58:32.752Z,78.02
2023-08-29T10:59:32.734Z,78.58
2023-08-29T11:00:32.769Z,78.18
2023-08-29T11:01:32.706Z,77.41
2023-08-29T11:02:32.880Z,77.37
2023-08-29T11:03:32.683Z,79.38
2023-08-29T11:04:38.699Z,77.08
2023-08-29T11:05:33.677Z,76.57
2023-08-29T11:06:32.631Z,79.28
2023-08-29T11:07:32.635Z,77.67
2023-08-29T11:08:32.630Z,77.67
2023-08-29T11:09:32.601Z,77.41
2023-08-29T11:10:32.585Z,80.22
2023-08-29T11:11:32.566Z,77.31
2023-08-29T11:12:32.602Z,78.52
2023-08-29T11:13:32.548Z,78.92
2023-08-29T11:14:32.527Z,79.72
2023-08-29T11:15:32.516Z,77.31
2023-08-29T11:16:32.528Z,76.61
2023-08-29T11:17:32.526Z,77.55
2023-08-29T11:18:32.482Z,80.12
2023-08-29T11:19:32.467Z,78.72
2023-08-29T11:20:32.445Z,78.02
2023-08-29T11:21:32.448Z,78.08
2023-08-29T11:22:32.503Z,76.57
2023-08-29T11:23:32.437Z,78.58
2023-08-29T11:24:32.398Z,76.98
2023-08-29T11:25:32.441Z,77.67
2023-08-29T11:26:32.380Z,76.41
2023-08-29T11:27:32.486Z,80.79
2023-08-29T11:28:32.350Z,76.67
2023-08-29T11:29:32.340Z,77.11
2023-08-29T11:30:43.407Z,77.72
2023-08-29T11:31:33.361Z,76.41
2023-08-29T11:32:32.344Z,78.31
2023-08-29T11:33:32.287Z,77.58
2023-08-29T11:34:32.272Z,77.28
2023-08-29T11:35:32.269Z,74.93
2023-08-29T11:36:32.250Z,75.70
2023-08-29T11:37:32.270Z,73.10
2023-08-29T11:38:32.208Z,75.34
2023-08-29T11:39:32.215Z,73.93
2023-08-29T11:40:37.370Z,74.57
2023-08-29T11:41:52.391Z,75.47
2023-08-29T11:42:58.192Z,74.87
2023-08-29T11:44:26.088Z,76.64
2023-08-29T11:44:49.026Z,76.30
2023-08-29T11:45:44.690Z,75.10
2023-08-29T11:46:33.136Z,76.10
2023-08-29T11:47:32.122Z,77.86
2023-08-29T11:48:32.082Z,74.43
2023-08-29T11:49:32.078Z,72.46
2023-08-29T11:50:32.064Z,72.36
2023-08-29T11:51:32.041Z,72.80
2023-08-29T11:52:32.030Z,77.36
2023-08-29T11:53:32.036Z,73.66
2023-08-29T11:54:32.013Z,76.93
2023-08-29T11:55:31.984Z,72.09
2023-08-29T11:56:31.978Z,72.03
2023-08-29T11:57:31.959Z,73.36
2023-08-29T11:58:31.960Z,75.43
2023-08-29T11:59:31.946Z,73.13
2023-08-29T12:00:31.925Z,74.59
2023-08-29T12:01:31.952Z,75.35
2023-08-29T12:02:31.988Z,72.72
2023-08-29T12:03:31.929Z,71.46
2023-08-29T12:04:31.877Z,72.62
2023-08-29T12:05:39.372Z,72.32
2023-08-29T12:06:31.853Z,69.46
2023-08-29T12:07:31.868Z,71.73
2023-08-29T12:08:31.833Z,71.46
2023-08-29T12:09:31.806Z,72.30
2023-08-29T12:10:31.799Z,73.13
2023-08-29T12:11:31.780Z,75.23
2023-08-29T12:12:31.779Z,74.23
2023-08-29T12:13:31.770Z,74.84
2023-08-29T12:14:31.743Z,76.30
2023-08-29T12:16:32.777Z,77.63
2023-08-29T12:17:31.754Z,71.62
2023-08-29T12:18:31.702Z,71.23
2023-08-29T12:19:31.680Z,71.92
2023-08-29T12:20:31.674Z,71.16
2023-08-29T12:21:31.648Z,72.30
2023-08-29T12:22:31.713Z,72.60
2023-08-29T12:23:31.629Z,72.19
2023-08-29T12:24:31.619Z,70.79
2023-08-29T12:25:31.611Z,70.69
2023-08-29T12:26:31.600Z,71.86
2023-08-29T12:27:31.591Z,71.12
2023-08-29T12:28:31.574Z,74.36
2023-08-29T12:29:31.547Z,72.13
2023-08-29T12:30:31.579Z,69.20
2023-08-29T12:31:31.559Z,67.93
2023-08-29T12:32:31.558Z,70.53
2023-08-29T12:33:31.501Z,67.56
2023-08-29T12:34:31.485Z,68.69
2023-08-29T12:35:31.469Z,70.99
2023-08-29T12:36:31.478Z,69.19
2023-08-29T12:37:31.447Z,69.99
2023-08-29T12:38:31.451Z,69.26
2023-08-29T12:39:31.432Z,69.13
2023-08-29T12:40:31.434Z,67.76
2023-08-29T12:41:31.403Z,71.33
2023-08-29T12:42:31.387Z,69.16
2023-08-29T12:43:31.379Z,66.33
2023-08-29T12:44:31.360Z,64.84
2023-08-29T12:45:34.708Z,65.83
2023-08-29T12:46:32.447Z,66.26
2023-08-29T12:47:31.357Z,69.56
2023-08-29T12:48:31.312Z,71.43
2023-08-29T12:49:31.301Z,72.36
2023-08-29T12:50:31.291Z,73.36
2023-08-29T12:51:31.266Z,72.47
2023-08-29T12:52:31.254Z,73.16
2023-08-29T12:53:31.244Z,74.47